sensor_id;sensor_type;location;lat;lon;timestamp;temperature;humidity
26051;DHT22;13825;53.496;10.020;2023-11-19T00:01:58;5.10;99.90
26051;DHT22;13825;53.496;10.020;2023-11-19T00:04:25;5.10;99.90
26051;DHT22;13825;53.496;10.020;2023-11-19T00:06:52;5.20;99.90
26051;DHT22;13825;53.496;10.020;2023-11-19T00:09:19;5.10;99.90
26051;DHT22;13825;53.496;10.020;2023-11-19T00:11:47;5.10;99.90
26051;DHT22;13825;53.496;10.020;2023-11-19T00:14:14;5.10;99.90
26051;DHT22;13825;53.496;10.020;2023-11-19T00:16:42;5.10;99.90
26051;DHT22;13825;53.496;10.020;2023-11-19T00:19:10;5.20;99.90
26051;DHT22;13825;53.496;10.020;2023-11-19T00:21:37;5.40;99.90
26051;DHT22;13825;53.496;10.020;2023-11-19T00:24:05;5.20;99.90
26051;DHT22;13825;53.496;10.020;2023-11-19T00:26:32;5.20;99.90
26051;DHT22;13825;53.496;10.020;2023-11-19T00:29:00;5.10;99.90
26051;DHT22;13825;53.496;10.020;2023-11-19T00:31:27;5.00;99.90
26051;DHT22;13825;53.496;10.020;2023-11-19T00:33:54;5.10;99.90
26051;DHT22;13825;53.496;10.020;2023-11-19T00:36:21;4.90;99.90
26051;DHT22;13825;53.496;10.020;2023-11-19T00:38:49;5.20;99.90
26051;DHT22;13825;53.496;10.020;2023-11-19T00:41:18;5.20;99.90
26051;DHT22;13825;53.496;10.020;2023-11-19T00:43:45;5.20;99.90
26051;DHT22;13825;53.496;10.020;2023-11-19T00:46:13;5.20;99.90
26051;DHT22;13825;53.496;10.020;2023-11-19T00:48:40;5.20;99.90
26051;DHT22;13825;53.496;10.020;2023-11-19T00:51:07;5.20;99.90
26051;DHT22;13825;53.496;10.020;2023-11-19T00:53:33;5.20;99.90
26051;DHT22;13825;53.496;10.020;2023-11-19T00:56:00;5.20;99.90
26051;DHT22;13825;53.496;10.020;2023-11-19T00:58:27;5.30;99.90
26051;DHT22;13825;53.496;10.020;2023-11-19T01:00:55;4.90;99.90
26051;DHT22;13825;53.496;10.020;2023-11-19T01:03:24;5.30;99.90
26051;DHT22;13825;53.496;10.020;2023-11-19T01:05:51;5.30;99.90
26051;DHT22;13825;53.496;10.020;2023-11-19T01:08:19;5.30;99.90
26051;DHT22;13825;53.496;10.020;2023-11-19T01:10:46;5.20;99.90
26051;DHT22;13825;53.496;10.020;2023-11-19T01:13:13;5.20;99.90
26051;DHT22;13825;53.496;10.020;2023-11-19T01:15:40;5.20;99.90
26051;DHT22;13825;53.496;10.020;2023-11-19T01:18:07;5.20;99.90
26051;DHT22;13825;53.496;10.020;2023-11-19T01:20:36;5.30;99.90
26051;DHT22;13825;53.496;10.020;2023-11-19T01:23:03;5.30;99.90
26051;DHT22;13825;53.496;10.020;2023-11-19T01:25:30;5.20;99.90
26051;DHT22;13825;53.496;10.020;2023-11-19T01:27:57;5.30;99.90
26051;DHT22;13825;53.496;10.020;2023-11-19T01:30:24;5.30;99.90
26051;DHT22;13825;53.496;10.020;2023-11-19T01:32:51;5.30;99.90
26051;DHT22;13825;53.496;10.020;2023-11-19T01:35:18;5.30;99.90
26051;DHT22;13825;53.496;10.020;2023-11-19T01:37:46;5.30;99.90
26051;DHT22;13825;53.496;10.020;2023-11-19T01:40:13;5.30;99.90
26051;DHT22;13825;53.496;10.020;2023-11-19T01:42:41;5.30;99.90
26051;DHT22;13825;53.496;10.020;2023-11-19T01:45:08;5.40;99.90
26051;DHT22;13825;53.496;10.020;2023-11-19T01:47:36;5.40;99.90
26051;DHT22;13825;53.496;10.020;2023-11-19T01:50:06;5.30;99.90
26051;DHT22;13825;53.496;10.020;2023-11-19T01:52:34;5.40;99.90
26051;DHT22;13825;53.496;10.020;2023-11-19T01:55:05;5.40;99.90
26051;DHT22;13825;53.496;10.020;2023-11-19T01:57:33;5.40;99.90
26051;DHT22;13825;53.496;10.020;2023-11-19T02:00:00;5.40;99.90
26051;DHT22;13825;53.496;10.020;2023-11-19T02:02:28;5.40;99.90
26051;DHT22;13825;53.496;10.020;2023-11-19T02:04:56;5.40;99.90
26051;DHT22;13825;53.496;10.020;2023-11-19T02:07:24;5.20;99.90
26051;DHT22;13825;53.496;10.020;2023-11-19T02:09:51;5.40;99.90
26051;DHT22;13825;53.496;10.020;2023-11-19T02:12:19;5.40;99.90
26051;DHT22;13825;53.496;10.020;2023-11-19T02:14:47;5.40;99.90
26051;DHT22;13825;53.496;10.020;2023-11-19T02:17:26;6.20;99.90
26051;DHT22;13825;53.496;10.020;2023-11-19T02:19:54;5.40;99.90
26051;DHT22;13825;53.496;10.020;2023-11-19T02:22:20;5.50;99.90
26051;DHT22;13825;53.496;10.020;2023-11-19T02:24:51;5.40;99.90
26051;DHT22;13825;53.496;10.020;2023-11-19T02:27:24;5.50;99.90
26051;DHT22;13825;53.496;10.020;2023-11-19T02:29:54;5.90;99.90
26051;DHT22;13825;53.496;10.020;2023-11-19T02:32:21;5.50;99.90
26051;DHT22;13825;53.496;10.020;2023-11-19T02:34:47;5.50;99.90
26051;DHT22;13825;53.496;10.020;2023-11-19T02:37:14;5.50;99.90
26051;DHT22;13825;53.496;10.020;2023-11-19T02:39:41;5.50;99.90
26051;DHT22;13825;53.496;10.020;2023-11-19T02:42:08;5.50;99.90
26051;DHT22;13825;53.496;10.020;2023-11-19T02:44:35;5.40;99.90
26051;DHT22;13825;53.496;10.020;2023-11-19T02:47:05;5.50;99.90
26051;DHT22;13825;53.496;10.020;2023-11-19T02:49:33;5.50;99.90
26051;DHT22;13825;53.496;10.020;2023-11-19T02:52:03;5.50;99.90
26051;DHT22;13825;53.496;10.020;2023-11-19T02:54:31;5.60;99.90
26051;DHT22;13825;53.496;10.020;2023-11-19T02:57:00;5.60;99.90
26051;DHT22;13825;53.496;10.020;2023-11-19T02:59:29;5.60;99.90
26051;DHT22;13825;53.496;10.020;2023-11-19T03:02:05;5.60;99.90
26051;DHT22;13825;53.496;10.020;2023-11-19T03:04:33;5.70;99.90
26051;DHT22;13825;53.496;10.020;2023-11-19T03:07:00;5.60;99.90
26051;DHT22;13825;53.496;10.020;2023-11-19T03:09:27;5.40;99.90
26051;DHT22;13825;53.496;10.020;2023-11-19T03:11:55;5.30;99.90
26051;DHT22;13825;53.496;10.020;2023-11-19T03:14:22;5.80;99.90
26051;DHT22;13825;53.496;10.020;2023-11-19T03:16:49;5.60;99.90
26051;DHT22;13825;53.496;10.020;2023-11-19T03:19:17;6.40;99.90
26051;DHT22;13825;53.496;10.020;2023-11-19T03:21:44;5.60;99.90
26051;DHT22;13825;53.496;10.020;2023-11-19T03:24:13;5.70;99.90
26051;DHT22;13825;53.496;10.020;2023-11-19T03:26:42;5.70;99.90
26051;DHT22;13825;53.496;10.020;2023-11-19T03:29:09;5.50;99.90
26051;DHT22;13825;53.496;10.020;2023-11-19T03:31:36;5.70;99.90
26051;DHT22;13825;53.496;10.020;2023-11-19T03:34:08;5.80;99.90
26051;DHT22;13825;53.496;10.020;2023-11-19T03:36:36;5.70;99.90
26051;DHT22;13825;53.496;10.020;2023-11-19T03:39:03;5.80;99.90
26051;DHT22;13825;53.496;10.020;2023-11-19T03:41:30;5.80;99.90
26051;DHT22;13825;53.496;10.020;2023-11-19T03:43:57;5.60;99.90
26051;DHT22;13825;53.496;10.020;2023-11-19T03:46:24;5.80;99.90
26051;DHT22;13825;53.496;10.020;2023-11-19T03:48:51;5.90;99.90
26051;DHT22;13825;53.496;10.020;2023-11-19T03:51:18;5.70;99.90
26051;DHT22;13825;53.496;10.020;2023-11-19T03:53:46;6.00;99.90
26051;DHT22;13825;53.496;10.020;2023-11-19T03:56:13;5.70;99.90
26051;DHT22;13825;53.496;10.020;2023-11-19T03:58:40;5.90;99.90
26051;DHT22;13825;53.496;10.020;2023-11-19T04:01:11;5.90;99.90
26051;DHT22;13825;53.496;10.020;2023-11-19T04:03:39;5.80;99.90
26051;DHT22;13825;53.496;10.020;2023-11-19T04:06:07;5.80;99.90
26051;DHT22;13825;53.496;10.020;2023-11-19T04:08:34;6.00;99.90
26051;DHT22;13825;53.496;10.020;2023-11-19T04:11:02;6.00;99.90
26051;DHT22;13825;53.496;10.020;2023-11-19T04:13:29;6.00;99.90
26051;DHT22;13825;53.496;10.020;2023-11-19T04:15:56;6.40;99.90
26051;DHT22;13825;53.496;10.020;2023-11-19T04:18:23;5.80;99.90
26051;DHT22;13825;53.496;10.020;2023-11-19T04:20:50;6.10;99.90
26051;DHT22;13825;53.496;10.020;2023-11-19T04:23:17;6.20;99.90
26051;DHT22;13825;53.496;10.020;2023-11-19T04:25:44;6.10;99.90
26051;DHT22;13825;53.496;10.020;2023-11-19T04:28:12;6.10;99.90
26051;DHT22;13825;53.496;10.020;2023-11-19T04:30:39;6.20;99.90
26051;DHT22;13825;53.496;10.020;2023-11-19T04:33:06;6.20;99.90
26051;DHT22;13825;53.496;10.020;2023-11-19T04:35:33;6.10;99.90
26051;DHT22;13825;53.496;10.020;2023-11-19T04:38:00;6.20;99.90
26051;DHT22;13825;53.496;10.020;2023-11-19T04:40:26;6.20;99.90
26051;DHT22;13825;53.496;10.020;2023-11-19T04:42:53;6.30;99.90
26051;DHT22;13825;53.496;10.020;2023-11-19T04:45:22;6.70;99.90
26051;DHT22;13825;53.496;10.020;2023-11-19T04:47:49;6.30;99.90
26051;DHT22;13825;53.496;10.020;2023-11-19T04:50:16;6.20;99.90
26051;DHT22;13825;53.496;10.020;2023-11-19T04:52:43;6.40;99.90
26051;DHT22;13825;53.496;10.020;2023-11-19T04:55:10;6.30;99.90
26051;DHT22;13825;53.496;10.020;2023-11-19T04:57:39;6.40;99.90
26051;DHT22;13825;53.496;10.020;2023-11-19T05:00:07;6.50;99.90
26051;DHT22;13825;53.496;10.020;2023-11-19T05:02:38;6.50;99.90
26051;DHT22;13825;53.496;10.020;2023-11-19T05:05:05;6.50;99.90
26051;DHT22;13825;53.496;10.020;2023-11-19T05:07:33;6.60;99.90
26051;DHT22;13825;53.496;10.020;2023-11-19T05:09:59;6.60;99.90
26051;DHT22;13825;53.496;10.020;2023-11-19T05:12:26;6.70;99.90
26051;DHT22;13825;53.496;10.020;2023-11-19T05:14:53;6.70;99.90
26051;DHT22;13825;53.496;10.020;2023-11-19T05:17:20;6.70;99.90
26051;DHT22;13825;53.496;10.020;2023-11-19T05:19:48;6.90;99.90
26051;DHT22;13825;53.496;10.020;2023-11-19T05:22:15;7.20;99.90
26051;DHT22;13825;53.496;10.020;2023-11-19T05:24:42;7.00;99.90
26051;DHT22;13825;53.496;10.020;2023-11-19T05:27:10;7.10;99.90
26051;DHT22;13825;53.496;10.020;2023-11-19T05:29:38;7.00;99.90
26051;DHT22;13825;53.496;10.020;2023-11-19T05:32:06;7.10;99.90
26051;DHT22;13825;53.496;10.020;2023-11-19T05:34:33;7.40;99.90
26051;DHT22;13825;53.496;10.020;2023-11-19T05:37:02;7.70;99.90
26051;DHT22;13825;53.496;10.020;2023-11-19T05:39:31;8.00;99.90
26051;DHT22;13825;53.496;10.020;2023-11-19T05:41:58;8.40;99.90
26051;DHT22;13825;53.496;10.020;2023-11-19T05:44:25;8.80;99.90
26051;DHT22;13825;53.496;10.020;2023-11-19T05:46:52;8.70;99.90
26051;DHT22;13825;53.496;10.020;2023-11-19T05:49:20;8.90;99.90
26051;DHT22;13825;53.496;10.020;2023-11-19T05:51:46;9.00;99.90
26051;DHT22;13825;53.496;10.020;2023-11-19T05:54:15;9.10;99.90
26051;DHT22;13825;53.496;10.020;2023-11-19T05:56:47;9.20;99.90
26051;DHT22;13825;53.496;10.020;2023-11-19T05:59:19;9.20;99.90
26051;DHT22;13825;53.496;10.020;2023-11-19T06:01:48;9.30;99.90
26051;DHT22;13825;53.496;10.020;2023-11-19T06:04:15;9.40;99.90
26051;DHT22;13825;53.496;10.020;2023-11-19T06:06:42;9.50;99.90
26051;DHT22;13825;53.496;10.020;2023-11-19T06:09:09;9.50;99.90
26051;DHT22;13825;53.496;10.020;2023-11-19T06:11:37;9.50;99.90
26051;DHT22;13825;53.496;10.020;2023-11-19T06:14:04;9.60;99.90
26051;DHT22;13825;53.496;10.020;2023-11-19T06:16:31;9.70;99.90
26051;DHT22;13825;53.496;10.020;2023-11-19T06:18:58;9.80;99.90
26051;DHT22;13825;53.496;10.020;2023-11-19T06:21:25;9.70;99.90
26051;DHT22;13825;53.496;10.020;2023-11-19T06:23:52;9.70;99.90
26051;DHT22;13825;53.496;10.020;2023-11-19T06:26:20;9.80;99.90
26051;DHT22;13825;53.496;10.020;2023-11-19T06:28:49;9.90;99.90
26051;DHT22;13825;53.496;10.020;2023-11-19T06:31:16;10.00;99.90
26051;DHT22;13825;53.496;10.020;2023-11-19T06:33:43;9.90;99.90
26051;DHT22;13825;53.496;10.020;2023-11-19T06:36:10;9.90;99.90
26051;DHT22;13825;53.496;10.020;2023-11-19T06:38:37;10.00;99.90
26051;DHT22;13825;53.496;10.020;2023-11-19T06:41:07;10.00;99.90
26051;DHT22;13825;53.496;10.020;2023-11-19T06:43:35;10.10;99.90
26051;DHT22;13825;53.496;10.020;2023-11-19T06:46:04;10.10;99.90
26051;DHT22;13825;53.496;10.020;2023-11-19T06:48:31;10.10;99.90
26051;DHT22;13825;53.496;10.020;2023-11-19T06:50:59;10.20;99.90
26051;DHT22;13825;53.496;10.020;2023-11-19T06:53:27;10.20;99.90
26051;DHT22;13825;53.496;10.020;2023-11-19T06:55:55;10.10;99.90
26051;DHT22;13825;53.496;10.020;2023-11-19T06:58:22;10.20;99.90
26051;DHT22;13825;53.496;10.020;2023-11-19T07:00:49;10.30;99.90
26051;DHT22;13825;53.496;10.020;2023-11-19T07:03:18;10.30;99.90
26051;DHT22;13825;53.496;10.020;2023-11-19T07:05:46;10.30;99.90
26051;DHT22;13825;53.496;10.020;2023-11-19T07:08:14;10.30;99.90
26051;DHT22;13825;53.496;10.020;2023-11-19T07:10:41;10.40;99.90
26051;DHT22;13825;53.496;10.020;2023-11-19T07:13:08;10.30;99.90
26051;DHT22;13825;53.496;10.020;2023-11-19T07:15:35;10.40;99.90
26051;DHT22;13825;53.496;10.020;2023-11-19T07:18:02;10.40;99.90
26051;DHT22;13825;53.496;10.020;2023-11-19T07:20:30;10.50;99.90
26051;DHT22;13825;53.496;10.020;2023-11-19T07:22:58;10.50;99.90
26051;DHT22;13825;53.496;10.020;2023-11-19T07:25:26;10.50;99.90
26051;DHT22;13825;53.496;10.020;2023-11-19T07:27:52;10.50;99.90
26051;DHT22;13825;53.496;10.020;2023-11-19T07:30:19;10.60;99.90
26051;DHT22;13825;53.496;10.020;2023-11-19T07:32:46;10.50;99.90
26051;DHT22;13825;53.496;10.020;2023-11-19T07:35:14;10.60;99.90
26051;DHT22;13825;53.496;10.020;2023-11-19T07:37:42;10.60;99.90
26051;DHT22;13825;53.496;10.020;2023-11-19T07:40:10;10.60;99.90
26051;DHT22;13825;53.496;10.020;2023-11-19T07:42:38;10.70;99.90
26051;DHT22;13825;53.496;10.020;2023-11-19T07:45:05;10.70;99.90
26051;DHT22;13825;53.496;10.020;2023-11-19T07:47:33;10.80;99.90
26051;DHT22;13825;53.496;10.020;2023-11-19T07:50:00;10.80;99.90
26051;DHT22;13825;53.496;10.020;2023-11-19T07:52:27;10.80;99.90
26051;DHT22;13825;53.496;10.020;2023-11-19T07:54:55;10.80;99.90
26051;DHT22;13825;53.496;10.020;2023-11-19T07:57:22;10.90;99.90
26051;DHT22;13825;53.496;10.020;2023-11-19T07:59:50;11.00;99.90
26051;DHT22;13825;53.496;10.020;2023-11-19T08:02:17;10.90;99.90
26051;DHT22;13825;53.496;10.020;2023-11-19T08:04:44;10.90;99.90
26051;DHT22;13825;53.496;10.020;2023-11-19T08:07:11;10.90;99.90
26051;DHT22;13825;53.496;10.020;2023-11-19T08:09:38;10.90;99.90
26051;DHT22;13825;53.496;10.020;2023-11-19T08:12:07;10.90;99.90
26051;DHT22;13825;53.496;10.020;2023-11-19T08:14:35;10.90;99.90
26051;DHT22;13825;53.496;10.020;2023-11-19T08:17:02;10.80;99.90
26051;DHT22;13825;53.496;10.020;2023-11-19T08:19:30;10.80;99.90
26051;DHT22;13825;53.496;10.020;2023-11-19T08:21:57;10.80;99.90
26051;DHT22;13825;53.496;10.020;2023-11-19T08:24:23;10.80;99.90
26051;DHT22;13825;53.496;10.020;2023-11-19T08:26:53;10.80;99.90
26051;DHT22;13825;53.496;10.020;2023-11-19T08:29:22;10.80;99.90
26051;DHT22;13825;53.496;10.020;2023-11-19T08:31:49;10.80;99.90
26051;DHT22;13825;53.496;10.020;2023-11-19T08:34:16;10.80;99.90
26051;DHT22;13825;53.496;10.020;2023-11-19T08:36:43;10.80;99.90
26051;DHT22;13825;53.496;10.020;2023-11-19T08:39:10;10.80;99.90
26051;DHT22;13825;53.496;10.020;2023-11-19T08:41:39;10.90;99.90
26051;DHT22;13825;53.496;10.020;2023-11-19T08:44:07;10.90;99.90
26051;DHT22;13825;53.496;10.020;2023-11-19T08:46:35;10.90;99.90
26051;DHT22;13825;53.496;10.020;2023-11-19T08:49:02;11.00;99.90
26051;DHT22;13825;53.496;10.020;2023-11-19T08:51:28;11.30;99.90
26051;DHT22;13825;53.496;10.020;2023-11-19T08:53:55;11.00;99.90
26051;DHT22;13825;53.496;10.020;2023-11-19T08:56:23;11.10;99.90
26051;DHT22;13825;53.496;10.020;2023-11-19T08:58:49;11.10;99.90
26051;DHT22;13825;53.496;10.020;2023-11-19T09:01:16;11.10;99.90
26051;DHT22;13825;53.496;10.020;2023-11-19T09:03:45;11.10;99.90
26051;DHT22;13825;53.496;10.020;2023-11-19T09:06:12;11.10;99.90
26051;DHT22;13825;53.496;10.020;2023-11-19T09:08:39;11.20;99.90
26051;DHT22;13825;53.496;10.020;2023-11-19T09:11:10;11.10;99.90
26051;DHT22;13825;53.496;10.020;2023-11-19T09:13:37;11.20;99.90
26051;DHT22;13825;53.496;10.020;2023-11-19T09:16:05;11.20;99.90
26051;DHT22;13825;53.496;10.020;2023-11-19T09:18:32;11.20;99.90
26051;DHT22;13825;53.496;10.020;2023-11-19T09:21:00;11.20;99.90
26051;DHT22;13825;53.496;10.020;2023-11-19T09:23:28;11.20;99.90
26051;DHT22;13825;53.496;10.020;2023-11-19T09:25:58;11.20;99.90
26051;DHT22;13825;53.496;10.020;2023-11-19T09:28:25;11.10;99.90
26051;DHT22;13825;53.496;10.020;2023-11-19T09:30:52;11.20;99.90
26051;DHT22;13825;53.496;10.020;2023-11-19T09:33:19;11.20;99.90
26051;DHT22;13825;53.496;10.020;2023-11-19T09:35:46;11.20;99.90
26051;DHT22;13825;53.496;10.020;2023-11-19T09:38:16;11.20;99.90
26051;DHT22;13825;53.496;10.020;2023-11-19T09:40:43;11.20;99.90
26051;DHT22;13825;53.496;10.020;2023-11-19T09:43:11;11.30;99.90
26051;DHT22;13825;53.496;10.020;2023-11-19T09:45:47;11.20;99.90
26051;DHT22;13825;53.496;10.020;2023-11-19T09:48:16;11.30;99.90
26051;DHT22;13825;53.496;10.020;2023-11-19T09:50:45;11.20;99.90
26051;DHT22;13825;53.496;10.020;2023-11-19T09:53:13;11.10;99.90
26051;DHT22;13825;53.496;10.020;2023-11-19T09:55:42;11.20;99.90
26051;DHT22;13825;53.496;10.020;2023-11-19T09:58:12;11.10;99.90
26051;DHT22;13825;53.496;10.020;2023-11-19T10:00:40;11.20;99.90
26051;DHT22;13825;53.496;10.020;2023-11-19T10:03:09;11.20;99.90
26051;DHT22;13825;53.496;10.020;2023-11-19T10:05:37;11.20;99.90
26051;DHT22;13825;53.496;10.020;2023-11-19T10:08:05;11.20;99.90
26051;DHT22;13825;53.496;10.020;2023-11-19T10:10:33;11.30;99.90
26051;DHT22;13825;53.496;10.020;2023-11-19T10:13:01;11.20;99.90
26051;DHT22;13825;53.496;10.020;2023-11-19T10:15:35;11.20;99.90
26051;DHT22;13825;53.496;10.020;2023-11-19T10:18:03;11.30;99.90
26051;DHT22;13825;53.496;10.020;2023-11-19T10:20:35;11.40;99.90
26051;DHT22;13825;53.496;10.020;2023-11-19T10:23:03;11.30;99.90
26051;DHT22;13825;53.496;10.020;2023-11-19T10:25:30;11.30;99.90
26051;DHT22;13825;53.496;10.020;2023-11-19T10:27:57;11.40;99.90
26051;DHT22;13825;53.496;10.020;2023-11-19T10:30:27;11.20;99.90
26051;DHT22;13825;53.496;10.020;2023-11-19T10:33:12;11.20;99.90
26051;DHT22;13825;53.496;10.020;2023-11-19T10:35:53;11.10;99.90
26051;DHT22;13825;53.496;10.020;2023-11-19T10:38:20;11.10;99.90
26051;DHT22;13825;53.496;10.020;2023-11-19T10:40:48;11.10;99.90
26051;DHT22;13825;53.496;10.020;2023-11-19T10:43:16;11.10;99.90
26051;DHT22;13825;53.496;10.020;2023-11-19T10:45:45;11.10;99.90
26051;DHT22;13825;53.496;10.020;2023-11-19T10:48:13;11.20;99.90
26051;DHT22;13825;53.496;10.020;2023-11-19T10:50:40;11.20;99.90
26051;DHT22;13825;53.496;10.020;2023-11-19T10:53:09;11.30;99.90
26051;DHT22;13825;53.496;10.020;2023-11-19T10:55:39;11.30;99.90
26051;DHT22;13825;53.496;10.020;2023-11-19T10:58:07;11.20;99.90
26051;DHT22;13825;53.496;10.020;2023-11-19T11:00:38;11.20;99.90
26051;DHT22;13825;53.496;10.020;2023-11-19T11:03:11;11.20;99.90
26051;DHT22;13825;53.496;10.020;2023-11-19T11:05:39;11.20;99.90
26051;DHT22;13825;53.496;10.020;2023-11-19T11:08:09;11.10;99.90
26051;DHT22;13825;53.496;10.020;2023-11-19T11:10:41;11.10;99.90
26051;DHT22;13825;53.496;10.020;2023-11-19T11:13:13;11.10;99.90
26051;DHT22;13825;53.496;10.020;2023-11-19T11:15:41;11.10;99.90
26051;DHT22;13825;53.496;10.020;2023-11-19T11:18:09;11.00;99.90
26051;DHT22;13825;53.496;10.020;2023-11-19T11:20:36;11.10;99.90
26051;DHT22;13825;53.496;10.020;2023-11-19T11:23:45;11.00;99.90
26051;DHT22;13825;53.496;10.020;2023-11-19T11:26:32;10.90;99.90
26051;DHT22;13825;53.496;10.020;2023-11-19T11:29:04;10.90;99.90
26051;DHT22;13825;53.496;10.020;2023-11-19T11:31:39;11.00;99.90
26051;DHT22;13825;53.496;10.020;2023-11-19T11:34:44;11.00;99.90
26051;DHT22;13825;53.496;10.020;2023-11-19T11:37:18;11.10;99.90
26051;DHT22;13825;53.496;10.020;2023-11-19T11:39:46;11.10;99.90
26051;DHT22;13825;53.496;10.020;2023-11-19T11:42:33;11.20;99.90
26051;DHT22;13825;53.496;10.020;2023-11-19T11:45:03;11.30;99.90
26051;DHT22;13825;53.496;10.020;2023-11-19T11:48:11;11.40;99.90
26051;DHT22;13825;53.496;10.020;2023-11-19T11:50:54;11.40;99.90
26051;DHT22;13825;53.496;10.020;2023-11-19T11:53:25;11.50;99.90
26051;DHT22;13825;53.496;10.020;2023-11-19T11:55:53;11.70;99.90
26051;DHT22;13825;53.496;10.020;2023-11-19T12:01:08;11.80;99.90
26051;DHT22;13825;53.496;10.020;2023-11-19T12:03:35;11.70;99.90
26051;DHT22;13825;53.496;10.020;2023-11-19T12:06:06;11.70;99.90
26051;DHT22;13825;53.496;10.020;2023-11-19T12:08:35;11.60;99.90
26051;DHT22;13825;53.496;10.020;2023-11-19T12:11:02;11.50;99.90
26051;DHT22;13825;53.496;10.020;2023-11-19T12:13:53;11.50;99.90
26051;DHT22;13825;53.496;10.020;2023-11-19T12:16:21;11.50;99.90
26051;DHT22;13825;53.496;10.020;2023-11-19T12:18:48;11.50;99.90
26051;DHT22;13825;53.496;10.020;2023-11-19T12:21:30;11.50;99.90
26051;DHT22;13825;53.496;10.020;2023-11-19T12:23:59;11.50;99.90
26051;DHT22;13825;53.496;10.020;2023-11-19T12:26:37;11.60;99.90
26051;DHT22;13825;53.496;10.020;2023-11-19T12:29:05;11.50;99.90
26051;DHT22;13825;53.496;10.020;2023-11-19T12:31:33;11.90;99.90
26051;DHT22;13825;53.496;10.020;2023-11-19T12:34:08;12.10;99.90
26051;DHT22;13825;53.496;10.020;2023-11-19T12:36:39;12.20;99.90
26051;DHT22;13825;53.496;10.020;2023-11-19T12:39:08;12.20;99.90
26051;DHT22;13825;53.496;10.020;2023-11-19T12:41:53;12.20;99.90
26051;DHT22;13825;53.496;10.020;2023-11-19T12:44:21;12.00;99.90
26051;DHT22;13825;53.496;10.020;2023-11-19T12:47:02;11.90;99.90
26051;DHT22;13825;53.496;10.020;2023-11-19T12:49:29;12.00;99.90
26051;DHT22;13825;53.496;10.020;2023-11-19T12:52:00;11.90;99.90
26051;DHT22;13825;53.496;10.020;2023-11-19T12:54:34;11.80;99.90
26051;DHT22;13825;53.496;10.020;2023-11-19T12:57:01;11.70;99.90
26051;DHT22;13825;53.496;10.020;2023-11-19T12:59:28;11.80;99.90
26051;DHT22;13825;53.496;10.020;2023-11-19T13:01:56;12.00;99.90
26051;DHT22;13825;53.496;10.020;2023-11-19T13:04:27;12.10;99.90
26051;DHT22;13825;53.496;10.020;2023-11-19T13:06:54;12.40;99.90
26051;DHT22;13825;53.496;10.020;2023-11-19T13:09:24;12.30;99.90
26051;DHT22;13825;53.496;10.020;2023-11-19T13:11:52;12.50;99.90
26051;DHT22;13825;53.496;10.020;2023-11-19T13:14:19;12.60;99.90
26051;DHT22;13825;53.496;10.020;2023-11-19T13:16:46;12.10;99.90
26051;DHT22;13825;53.496;10.020;2023-11-19T13:19:13;12.10;99.90
26051;DHT22;13825;53.496;10.020;2023-11-19T13:21:41;12.00;99.90
26051;DHT22;13825;53.496;10.020;2023-11-19T13:24:09;12.00;99.90
26051;DHT22;13825;53.496;10.020;2023-11-19T13:26:37;12.00;99.90
26051;DHT22;13825;53.496;10.020;2023-11-19T13:29:05;12.10;99.90
26051;DHT22;13825;53.496;10.020;2023-11-19T13:31:31;12.30;99.90
26051;DHT22;13825;53.496;10.020;2023-11-19T13:33:58;12.50;99.90
26051;DHT22;13825;53.496;10.020;2023-11-19T13:36:25;12.40;99.90
26051;DHT22;13825;53.496;10.020;2023-11-19T13:38:52;12.10;99.90
26051;DHT22;13825;53.496;10.020;2023-11-19T13:41:24;12.00;99.90
26051;DHT22;13825;53.496;10.020;2023-11-19T13:43:53;11.90;99.90
26051;DHT22;13825;53.496;10.020;2023-11-19T13:46:20;11.90;99.90
26051;DHT22;13825;53.496;10.020;2023-11-19T13:48:47;11.90;99.90
26051;DHT22;13825;53.496;10.020;2023-11-19T13:51:16;12.10;99.90
26051;DHT22;13825;53.496;10.020;2023-11-19T13:53:43;12.10;99.90
26051;DHT22;13825;53.496;10.020;2023-11-19T13:56:10;12.10;99.90
26051;DHT22;13825;53.496;10.020;2023-11-19T13:58:37;12.10;99.90
26051;DHT22;13825;53.496;10.020;2023-11-19T14:01:07;12.10;99.90
26051;DHT22;13825;53.496;10.020;2023-11-19T14:03:34;12.10;99.90
26051;DHT22;13825;53.496;10.020;2023-11-19T14:06:01;11.90;99.90
26051;DHT22;13825;53.496;10.020;2023-11-19T14:08:28;11.80;99.90
26051;DHT22;13825;53.496;10.020;2023-11-19T14:10:55;11.60;99.90
26051;DHT22;13825;53.496;10.020;2023-11-19T14:13:23;11.60;99.90
26051;DHT22;13825;53.496;10.020;2023-11-19T14:15:50;11.50;99.90
26051;DHT22;13825;53.496;10.020;2023-11-19T14:18:19;11.40;99.90
26051;DHT22;13825;53.496;10.020;2023-11-19T14:20:46;11.30;99.90
26051;DHT22;13825;53.496;10.020;2023-11-19T14:23:13;11.30;99.90
26051;DHT22;13825;53.496;10.020;2023-11-19T14:25:40;11.20;99.90
26051;DHT22;13825;53.496;10.020;2023-11-19T14:28:07;11.20;99.90
26051;DHT22;13825;53.496;10.020;2023-11-19T14:30:34;11.10;99.90
26051;DHT22;13825;53.496;10.020;2023-11-19T14:33:01;11.00;99.90
26051;DHT22;13825;53.496;10.020;2023-11-19T14:35:30;11.00;99.90
26051;DHT22;13825;53.496;10.020;2023-11-19T14:37:58;11.10;99.90
26051;DHT22;13825;53.496;10.020;2023-11-19T14:40:25;11.10;99.90
26051;DHT22;13825;53.496;10.020;2023-11-19T14:42:52;11.10;99.90
26051;DHT22;13825;53.496;10.020;2023-11-19T14:45:19;11.00;99.90
26051;DHT22;13825;53.496;10.020;2023-11-19T14:47:46;11.10;99.90
26051;DHT22;13825;53.496;10.020;2023-11-19T14:50:13;11.10;99.90
26051;DHT22;13825;53.496;10.020;2023-11-19T14:52:42;10.90;99.90
26051;DHT22;13825;53.496;10.020;2023-11-19T14:55:12;11.30;99.90
26051;DHT22;13825;53.496;10.020;2023-11-19T14:57:39;11.20;99.90
26051;DHT22;13825;53.496;10.020;2023-11-19T15:00:08;10.90;99.90
26051;DHT22;13825;53.496;10.020;2023-11-19T15:02:39;11.00;99.90
26051;DHT22;13825;53.496;10.020;2023-11-19T15:05:07;10.80;99.90
26051;DHT22;13825;53.496;10.020;2023-11-19T15:07:36;10.30;99.90
26051;DHT22;13825;53.496;10.020;2023-11-19T15:10:05;10.90;99.90
26051;DHT22;13825;53.496;10.020;2023-11-19T15:12:36;10.90;99.90
26051;DHT22;13825;53.496;10.020;2023-11-19T15:15:07;10.60;99.90
26051;DHT22;13825;53.496;10.020;2023-11-19T15:17:34;10.80;99.90
26051;DHT22;13825;53.496;10.020;2023-11-19T15:20:03;10.60;99.90
26051;DHT22;13825;53.496;10.020;2023-11-19T15:22:30;10.50;99.90
26051;DHT22;13825;53.496;10.020;2023-11-19T15:24:58;10.50;99.90
26051;DHT22;13825;53.496;10.020;2023-11-19T15:27:26;10.50;99.90
26051;DHT22;13825;53.496;10.020;2023-11-19T15:29:53;10.60;99.90
26051;DHT22;13825;53.496;10.020;2023-11-19T15:32:20;10.60;99.90
26051;DHT22;13825;53.496;10.020;2023-11-19T15:34:46;10.60;99.90